Time;durP1;ratioP1;P1;durP2;ratioP2;P2;SDS_P1;SDS_P2;PMS_P1;PMS_P2;Temp;Humidity;BMP_temperature;BMP_pressure;BME280_temperature;BME280_humidity;BME280_pressure;Samples;Min_cycle;Max_cycle;Signal;HPM_P1;HPM_P2
2021/08/10 00:00:17;;;;;;;4.18;2.30;;;18.00;71.40;;;;;;5044840;28;20024;-69
2021/08/10 00:03:01;;;;;;;5.47;2.40;;;18.00;71.30;;;;;;5044434;28;20037;-69
2021/08/10 00:05:48;;;;;;;4.80;2.60;;;17.90;71.30;;;;;;5045073;28;20067;-68
2021/08/10 00:08:32;;;;;;;3.92;2.88;;;17.90;71.40;;;;;;5044872;28;20031;-69
2021/08/10 00:11:16;;;;;;;5.93;2.40;;;17.80;71.60;;;;;;5044775;28;20206;-69
2021/08/10 00:14:00;;;;;;;3.30;2.38;;;17.80;71.60;;;;;;5044490;28;20351;-69
2021/08/10 00:16:45;;;;;;;3.78;2.60;;;17.90;71.60;;;;;;5044279;28;20071;-69
2021/08/10 00:19:29;;;;;;;3.25;2.30;;;17.90;71.60;;;;;;5044242;28;20027;-69
2021/08/10 00:22:14;;;;;;;3.42;2.58;;;17.80;71.70;;;;;;5043918;28;20037;-68
2021/08/10 00:24:58;;;;;;;3.90;2.33;;;17.80;71.70;;;;;;5043839;28;20044;-69
2021/08/10 00:27:42;;;;;;;3.65;2.28;;;17.80;71.70;;;;;;5043884;28;20351;-68
2021/08/10 00:30:27;;;;;;;3.63;2.35;;;17.80;71.80;;;;;;5044375;28;20073;-69
2021/08/10 00:33:11;;;;;;;5.50;2.60;;;17.80;71.80;;;;;;5043953;28;20040;-69
2021/08/10 00:35:56;;;;;;;4.43;2.50;;;17.70;71.90;;;;;;5043999;28;20105;-69
2021/08/10 00:38:41;;;;;;;3.85;2.45;;;17.70;72.00;;;;;;5044212;28;20050;-68
2021/08/10 00:41:25;;;;;;;4.05;2.40;;;17.70;71.80;;;;;;5043722;28;20048;-68
2021/08/10 00:44:10;;;;;;;3.72;2.60;;;17.70;71.90;;;;;;5044042;28;20085;-68
2021/08/10 00:46:54;;;;;;;3.75;2.53;;;17.70;71.80;;;;;;5043974;28;20037;-69
2021/08/10 00:49:38;;;;;;;6.63;2.22;;;17.60;71.80;;;;;;5043661;28;20097;-69
2021/08/10 00:52:23;;;;;;;5.22;2.58;;;17.60;71.90;;;;;;5043595;28;20071;-69
2021/08/10 00:55:07;;;;;;;3.47;2.33;;;17.50;72.00;;;;;;5043567;28;20041;-69
2021/08/10 00:57:52;;;;;;;4.38;2.17;;;17.60;71.90;;;;;;5028792;28;20052;-69
2021/08/10 01:00:36;;;;;;;7.28;2.30;;;17.50;72.00;;;;;;5043462;28;20031;-68
2021/08/10 01:03:20;;;;;;;3.85;2.17;;;17.50;72.00;;;;;;5043927;28;20043;-69
2021/08/10 01:06:06;;;;;;;3.50;2.28;;;17.50;72.00;;;;;;5045925;28;20064;-69
2021/08/10 01:08:57;;;;;;;3.60;2.33;;;17.40;72.00;;;;;;5047611;28;20079;-69
2021/08/10 01:12:01;;;;;;;7.32;2.28;;;17.40;72.00;;;;;;5048086;28;20033;-69
2021/08/10 01:14:57;;;;;;;5.82;2.47;;;17.40;72.00;;;;;;5047990;28;20063;-69
2021/08/10 01:18:02;;;;;;;5.45;2.60;;;17.40;72.00;;;;;;5047323;28;20056;-69
2021/08/10 01:21:02;;;;;;;5.88;2.45;;;17.30;72.10;;;;;;5047904;28;20097;-69
2021/08/10 01:23:50;;;;;;;4.30;2.10;;;17.30;72.30;;;;;;5046449;28;20398;-69
2021/08/10 01:26:56;;;;;;;4.55;2.45;;;17.30;72.10;;;;;;5046326;28;20037;-69
2021/08/10 01:30:03;;;;;;;3.70;2.25;;;17.30;72.20;;;;;;5017245;28;20040;-69
2021/08/10 01:32:48;;;;;;;3.20;2.20;;;17.30;72.30;;;;;;5046816;28;20036;-69
2021/08/10 01:35:32;;;;;;;4.63;2.20;;;17.20;72.20;;;;;;5046049;28;20037;-69
2021/08/10 01:38:17;;;;;;;3.15;2.13;;;17.30;72.30;;;;;;5046031;28;20084;-69
2021/08/10 01:41:00;;;;;;;4.32;2.50;;;17.20;72.40;;;;;;5046018;28;20120;-69
2021/08/10 01:43:44;;;;;;;5.00;2.45;;;17.20;72.40;;;;;;5046946;28;20032;-69
2021/08/10 01:46:29;;;;;;;2.95;2.20;;;17.20;72.30;;;;;;5046137;28;20240;-69
2021/08/10 01:49:13;;;;;;;8.05;2.35;;;17.20;72.30;;;;;;5046992;28;20036;-69
2021/08/10 01:51:57;;;;;;;2.78;2.10;;;17.20;72.30;;;;;;5046841;28;20340;-68
2021/08/10 01:54:41;;;;;;;4.10;2.28;;;17.10;72.30;;;;;;5045787;28;20029;-68
2021/08/10 01:57:26;;;;;;;3.38;2.22;;;17.10;72.30;;;;;;5047108;28;20375;-69
2021/08/10 02:00:11;;;;;;;3.63;2.38;;;17.10;72.30;;;;;;5031941;28;20067;-69
2021/08/10 02:02:55;;;;;;;2.80;2.28;;;17.00;72.50;;;;;;5045817;28;20060;-68
2021/08/10 02:05:40;;;;;;;4.85;2.60;;;17.00;72.50;;;;;;5046095;28;20083;-69
2021/08/10 02:08:24;;;;;;;2.55;1.98;;;17.10;72.40;;;;;;5032426;28;20036;-69
2021/08/10 02:11:09;;;;;;;3.45;2.30;;;17.00;72.60;;;;;;5046119;28;20052;-68
2021/08/10 02:13:53;;;;;;;3.58;2.03;;;17.00;72.60;;;;;;5045733;28;20052;-68
2021/08/10 02:16:38;;;;;;;4.47;2.40;;;16.90;72.70;;;;;;5046182;28;20347;-68
2021/08/10 02:19:22;;;;;;;5.25;2.22;;;16.90;72.60;;;;;;5045505;28;20033;-68
2021/08/10 02:22:09;;;;;;;3.60;2.25;;;16.90;72.70;;;;;;5046358;28;20212;-68
2021/08/10 02:24:57;;;;;;;2.75;2.00;;;16.90;72.60;;;;;;5045082;28;20359;-69
2021/08/10 02:27:55;;;;;;;3.03;2.40;;;16.80;72.70;;;;;;5045193;28;20398;-68
2021/08/10 02:30:39;;;;;;;3.75;2.30;;;16.80;72.70;;;;;;5045165;28;20025;-68
2021/08/10 02:33:24;;;;;;;4.72;2.25;;;16.80;72.50;;;;;;5045554;28;20059;-69
2021/08/10 02:36:08;;;;;;;4.05;2.45;;;16.80;72.50;;;;;;5045749;28;20213;-69
2021/08/10 02:38:52;;;;;;;3.60;2.13;;;16.80;72.60;;;;;;5045058;28;20056;-69
2021/08/10 02:41:37;;;;;;;3.38;2.40;;;16.80;72.70;;;;;;5046336;28;20213;-69
2021/08/10 02:44:21;;;;;;;2.85;2.25;;;16.80;72.70;;;;;;5045789;28;20218;-68
2021/08/10 02:47:06;;;;;;;7.55;2.60;;;16.80;72.70;;;;;;5045764;28;20041;-69
2021/08/10 02:49:50;;;;;;;4.13;2.33;;;16.80;72.60;;;;;;5045682;28;20052;-68
2021/08/10 02:52:34;;;;;;;3.10;2.15;;;16.70;72.50;;;;;;5045714;28;20301;-68
2021/08/10 02:55:19;;;;;;;4.47;2.10;;;16.70;72.70;;;;;;5045625;28;20033;-68
2021/08/10 02:58:18;;;;;;;6.32;2.53;;;16.70;72.50;;;;;;5045450;28;20035;-68
2021/08/10 03:01:06;;;;;;;3.75;2.40;;;16.60;72.60;;;;;;5044666;28;20307;-68
2021/08/10 03:03:50;;;;;;;6.25;2.35;;;16.60;72.50;;;;;;5044501;28;20031;-68
2021/08/10 03:06:35;;;;;;;4.10;2.60;;;16.60;72.40;;;;;;5030487;28;20056;-68
2021/08/10 03:09:19;;;;;;;4.10;2.00;;;16.60;72.40;;;;;;5044877;28;20089;-68
2021/08/10 03:12:05;;;;;;;5.45;2.13;;;16.60;72.60;;;;;;5045475;28;20068;-68
2021/08/10 03:14:50;;;;;;;4.10;2.10;;;16.60;72.60;;;;;;5045792;28;20260;-68
2021/08/10 03:17:37;;;;;;;3.80;2.42;;;16.60;72.50;;;;;;5044592;28;20032;-68
2021/08/10 03:20:21;;;;;;;6.30;2.60;;;16.60;72.40;;;;;;5045110;28;20036;-68
2021/08/10 03:23:05;;;;;;;4.88;3.05;;;16.50;72.40;;;;;;5044064;28;20060;-68
2021/08/10 03:25:49;;;;;;;4.80;2.42;;;16.50;72.40;;;;;;5044315;28;20037;-68
2021/08/10 03:28:33;;;;;;;5.28;2.30;;;16.40;72.50;;;;;;5043428;28;20359;-68
2021/08/10 03:31:17;;;;;;;2.92;2.00;;;16.40;72.50;;;;;;5044127;28;20045;-68
2021/08/10 03:34:01;;;;;;;3.58;2.55;;;16.40;72.60;;;;;;5044954;28;20028;-68
2021/08/10 03:36:48;;;;;;;3.88;2.20;;;16.40;72.70;;;;;;5043823;28;20260;-68
2021/08/10 03:39:32;;;;;;;5.63;2.30;;;16.40;72.80;;;;;;5043905;28;20024;-68
2021/08/10 03:42:16;;;;;;;6.57;2.30;;;16.40;72.70;;;;;;5045164;28;20113;-68
2021/08/10 03:45:01;;;;;;;8.27;2.88;;;16.40;72.80;;;;;;5043863;28;20264;-68
2021/08/10 03:47:45;;;;;;;3.30;2.45;;;16.30;72.70;;;;;;5045092;28;20352;-68
2021/08/10 03:50:29;;;;;;;5.65;2.40;;;16.40;72.60;;;;;;5029715;28;20040;-69
2021/08/10 03:53:13;;;;;;;3.72;2.38;;;16.30;72.70;;;;;;5044501;28;20040;-68
2021/08/10 03:55:57;;;;;;;3.28;2.40;;;16.30;72.80;;;;;;5044501;28;20498;-68
2021/08/10 03:58:42;;;;;;;3.33;2.20;;;16.30;72.80;;;;;;5043394;28;20071;-68
2021/08/10 04:01:26;;;;;;;8.55;2.83;;;16.30;72.80;;;;;;5029593;28;20095;-69
2021/08/10 04:04:11;;;;;;;6.05;2.10;;;16.30;72.90;;;;;;5043338;28;20032;-68
2021/08/10 04:06:54;;;;;;;6.88;2.20;;;16.30;72.90;;;;;;5029397;28;20213;-69
2021/08/10 04:09:39;;;;;;;5.90;2.53;;;16.30;72.80;;;;;;5044233;28;20347;-68
2021/08/10 04:12:23;;;;;;;4.07;2.00;;;16.30;73.10;;;;;;5043707;28;20081;-69
2021/08/10 04:15:08;;;;;;;3.33;2.13;;;16.20;73.10;;;;;;5044284;28;20240;-68
2021/08/10 04:17:52;;;;;;;3.67;2.50;;;16.30;73.10;;;;;;5043140;28;20032;-69
2021/08/10 04:20:36;;;;;;;3.65;2.33;;;16.30;73.10;;;;;;5029607;28;20029;-69
2021/08/10 04:23:22;;;;;;;5.47;2.58;;;16.30;73.00;;;;;;5044041;28;20045;-68
2021/08/10 04:26:06;;;;;;;3.40;2.38;;;16.30;73.00;;;;;;5044167;28;20032;-68
2021/08/10 04:28:50;;;;;;;4.60;2.50;;;16.20;73.10;;;;;;5044166;28;20367;-68
2021/08/10 04:31:34;;;;;;;6.10;2.38;;;16.30;73.10;;;;;;5043857;28;20089;-68
2021/08/10 04:34:19;;;;;;;3.67;2.45;;;16.20;73.20;;;;;;5043813;28;20261;-68
2021/08/10 04:37:03;;;;;;;5.05;2.30;;;16.30;73.30;;;;;;5043959;28;20124;-68
2021/08/10 04:39:48;;;;;;;5.57;2.28;;;16.30;73.30;;;;;;5043721;28;20045;-69
2021/08/10 04:42:34;;;;;;;7.60;2.63;;;16.30;73.20;;;;;;5043670;28;20072;-67
2021/08/10 04:45:18;;;;;;;6.10;2.83;;;16.30;73.40;;;;;;5044097;28;20017;-69
2021/08/10 04:48:02;;;;;;;3.95;2.50;;;16.30;73.50;;;;;;5043781;28;20043;-68
2021/08/10 04:50:47;;;;;;;7.07;2.75;;;16.30;73.60;;;;;;5043620;28;20071;-68
2021/08/10 04:53:31;;;;;;;5.72;2.55;;;16.30;73.60;;;;;;5044228;28;20048;-68
2021/08/10 04:56:15;;;;;;;7.03;2.72;;;16.30;73.60;;;;;;5043599;28;20094;-68
2021/08/10 04:58:59;;;;;;;3.38;2.30;;;16.30;73.70;;;;;;5043423;28;20358;-69
2021/08/10 05:01:44;;;;;;;8.75;2.92;;;16.40;73.90;;;;;;5043552;28;20036;-68
2021/08/10 05:04:29;;;;;;;4.63;2.65;;;16.40;74.00;;;;;;5043406;28;20264;-68
2021/08/10 05:07:13;;;;;;;10.88;2.60;;;16.40;74.00;;;;;;5043539;28;20048;-68
2021/08/10 05:09:59;;;;;;;6.97;2.80;;;16.40;73.90;;;;;;5043426;28;20063;-68
2021/08/10 05:12:43;;;;;;;5.28;2.60;;;16.50;74.10;;;;;;5043643;28;20092;-69
2021/08/10 05:15:28;;;;;;;6.45;2.85;;;16.40;74.30;;;;;;5043302;28;20021;-67
2021/08/10 05:18:12;;;;;;;4.63;2.70;;;16.50;74.30;;;;;;5043700;28;20347;-69
2021/08/10 05:20:56;;;;;;;3.50;2.50;;;16.60;74.40;;;;;;5043458;28;20288;-69
2021/08/10 05:23:40;;;;;;;4.80;2.88;;;16.60;74.60;;;;;;5043246;28;20325;-69
2021/08/10 05:26:25;;;;;;;5.95;3.30;;;16.60;74.60;;;;;;5043690;28;20028;-69
2021/08/10 05:29:09;;;;;;;4.47;2.80;;;16.60;74.70;;;;;;5043220;28;20387;-68
2021/08/10 05:31:54;;;;;;;5.53;2.70;;;16.80;74.70;;;;;;5043505;28;20029;-69
2021/08/10 05:34:38;;;;;;;7.55;2.65;;;16.80;74.90;;;;;;5043437;28;20037;-69
2021/08/10 05:37:22;;;;;;;8.60;2.92;;;16.80;74.70;;;;;;5043167;28;20075;-69
2021/08/10 05:40:07;;;;;;;5.25;2.75;;;16.80;74.80;;;;;;5042376;28;20036;-69
2021/08/10 05:42:51;;;;;;;5.20;2.78;;;16.90;74.80;;;;;;5043152;28;20048;-68
2021/08/10 05:45:35;;;;;;;8.13;2.72;;;16.90;75.00;;;;;;5042191;28;20025;-68
2021/08/10 05:48:22;;;;;;;7.03;2.63;;;17.00;75.10;;;;;;5043516;28;20063;-69
2021/08/10 05:51:06;;;;;;;3.75;2.67;;;17.00;75.10;;;;;;5043746;28;20351;-68
2021/08/10 05:53:50;;;;;;;6.78;2.78;;;17.10;75.30;;;;;;5046685;28;20049;-69
2021/08/10 05:56:35;;;;;;;4.25;2.53;;;17.10;75.20;;;;;;5046629;28;20095;-69
2021/08/10 05:59:19;;;;;;;4.95;2.58;;;17.20;75.10;;;;;;5047187;28;20105;-69
2021/08/10 06:02:05;;;;;;;7.53;2.70;;;17.30;75.10;;;;;;5046625;28;20101;-68
2021/08/10 06:04:49;;;;;;;6.80;2.50;;;17.30;74.90;;;;;;5046783;28;20063;-69
2021/08/10 06:07:33;;;;;;;5.88;3.00;;;17.40;74.90;;;;;;5046658;28;20029;-69
2021/08/10 06:10:18;;;;;;;8.48;2.67;;;17.40;74.80;;;;;;5047108;28;20040;-69
2021/08/10 06:13:02;;;;;;;5.95;2.70;;;17.50;74.70;;;;;;5046403;28;20029;-69
2021/08/10 06:15:46;;;;;;;6.13;2.97;;;17.50;75.00;;;;;;5046351;28;20382;-69
2021/08/10 06:18:30;;;;;;;6.07;2.78;;;17.60;75.30;;;;;;5046160;28;20076;-68
2021/08/10 06:21:15;;;;;;;5.07;2.70;;;17.70;75.30;;;;;;5046703;28;20021;-69
2021/08/10 06:24:00;;;;;;;6.22;2.45;;;17.80;75.20;;;;;;5046131;28;20431;-69
2021/08/10 06:26:44;;;;;;;5.28;2.35;;;17.80;74.80;;;;;;5046642;28;20075;-69
2021/08/10 06:29:28;;;;;;;4.05;2.70;;;17.90;74.60;;;;;;5046531;28;20033;-69
2021/08/10 06:32:12;;;;;;;4.05;2.50;;;18.00;74.70;;;;;;5046032;28;20076;-69
2021/08/10 06:34:57;;;;;;;4.45;2.70;;;18.00;74.60;;;;;;5046283;28;20031;-69
2021/08/10 06:37:41;;;;;;;3.88;2.30;;;18.10;74.60;;;;;;5045845;28;20229;-69
2021/08/10 06:40:25;;;;;;;5.22;2.88;;;18.20;74.70;;;;;;5045691;28;20032;-69
2021/08/10 06:43:09;;;;;;;3.97;2.58;;;18.30;74.80;;;;;;5045826;28;20048;-69
2021/08/10 06:45:54;;;;;;;4.18;2.40;;;18.30;74.70;;;;;;5045818;28;20245;-69
2021/08/10 06:48:38;;;;;;;4.65;2.40;;;18.40;74.80;;;;;;5045693;28;20052;-69
2021/08/10 06:51:23;;;;;;;5.20;2.40;;;18.50;75.30;;;;;;5046127;28;20119;-69
2021/08/10 06:54:07;;;;;;;3.13;2.10;;;18.60;75.40;;;;;;5045371;28;20352;-69
2021/08/10 06:56:51;;;;;;;3.83;2.00;;;18.70;75.40;;;;;;5045347;28;20036;-69
2021/08/10 06:59:36;;;;;;;4.05;2.60;;;18.80;75.40;;;;;;5046189;28;20076;-69
2021/08/10 07:02:20;;;;;;;3.17;2.40;;;18.90;75.20;;;;;;5044975;28;20228;-69
2021/08/10 07:05:05;;;;;;;5.40;2.15;;;19.00;74.80;;;;;;5045282;28;20029;-69
2021/08/10 07:07:49;;;;;;;4.18;2.15;;;19.10;75.40;;;;;;5045498;28;20067;-69
2021/08/10 07:10:33;;;;;;;4.22;2.50;;;19.20;75.00;;;;;;5045360;28;20371;-69
2021/08/10 07:13:17;;;;;;;6.47;2.53;;;19.30;74.40;;;;;;5045439;28;20047;-69
2021/08/10 07:16:02;;;;;;;5.50;2.40;;;19.30;74.30;;;;;;5045113;28;20105;-69
2021/08/10 07:18:46;;;;;;;5.05;2.30;;;19.50;74.90;;;;;;5045081;28;20044;-69
2021/08/10 07:21:31;;;;;;;5.30;2.67;;;19.60;74.30;;;;;;5045087;28;20060;-69
2021/08/10 07:24:15;;;;;;;4.00;2.20;;;19.70;73.80;;;;;;5045315;28;20115;-69
2021/08/10 07:26:59;;;;;;;5.25;2.53;;;19.80;73.60;;;;;;5045210;28;20220;-69
2021/08/10 07:29:44;;;;;;;4.65;2.30;;;20.00;73.80;;;;;;5045477;28;20083;-69
2021/08/10 07:32:28;;;;;;;6.30;2.50;;;20.10;73.20;;;;;;5045364;28;20032;-69
2021/08/10 07:35:12;;;;;;;4.97;2.40;;;20.30;72.50;;;;;;5045126;28;20200;-69
2021/08/10 07:37:56;;;;;;;5.47;2.38;;;20.40;72.40;;;;;;5045353;28;20092;-69
2021/08/10 07:40:41;;;;;;;6.80;2.40;;;20.50;72.00;;;;;;5045018;28;20303;-69
2021/08/10 07:43:25;;;;;;;6.15;2.50;;;20.90;71.20;;;;;;5044944;28;20352;-70
2021/08/10 07:46:09;;;;;;;3.75;2.22;;;21.30;71.40;;;;;;5044688;28;20033;-70
2021/08/10 07:48:53;;;;;;;6.38;2.40;;;21.40;70.40;;;;;;5044714;28;20201;-69
2021/08/10 07:51:38;;;;;;;4.78;2.55;;;21.60;69.80;;;;;;5044538;28;20407;-69
2021/08/10 07:54:22;;;;;;;3.53;2.08;;;21.70;69.40;;;;;;5044928;28;20024;-70
2021/08/10 07:57:06;;;;;;;6.93;2.50;;;21.80;68.60;;;;;;5044494;28;20036;-70
2021/08/10 07:59:50;;;;;;;5.15;2.47;;;21.90;68.40;;;;;;5044417;28;20109;-70
2021/08/10 08:02:34;;;;;;;3.65;2.13;;;22.10;67.50;;;;;;5044798;28;20076;-70
2021/08/10 08:05:19;;;;;;;4.78;2.20;;;22.10;66.10;;;;;;5044652;28;20209;-70
2021/08/10 08:08:03;;;;;;;4.07;2.22;;;22.30;65.70;;;;;;5044497;28;20040;-70
2021/08/10 08:10:48;;;;;;;5.13;2.50;;;22.30;66.30;;;;;;5044446;28;20060;-70
2021/08/10 08:13:32;;;;;;;3.90;2.20;;;22.40;66.10;;;;;;5044250;28;20351;-71
2021/08/10 08:16:16;;;;;;;4.00;2.20;;;22.50;66.00;;;;;;5043330;28;20060;-70
2021/08/10 08:19:00;;;;;;;3.70;2.10;;;22.70;66.30;;;;;;5043976;28;20083;-70
2021/08/10 08:21:45;;;;;;;5.95;2.17;;;22.80;64.90;;;;;;5043035;28;20437;-70
2021/08/10 08:24:29;;;;;;;4.90;2.53;;;22.90;63.40;;;;;;5043578;28;20136;-69
2021/08/10 08:27:13;;;;;;;4.88;2.33;;;23.00;63.10;;;;;;5044228;28;20024;-70
2021/08/10 08:29:58;;;;;;;6.57;2.33;;;23.10;63.10;;;;;;5043015;28;20036;-70
2021/08/10 08:32:42;;;;;;;3.78;2.10;;;23.20;63.10;;;;;;5043521;28;20105;-70
2021/08/10 08:35:26;;;;;;;4.13;2.13;;;23.30;62.40;;;;;;5043175;28;20032;-70
2021/08/10 08:38:10;;;;;;;5.05;2.22;;;23.30;62.30;;;;;;5043948;28;20092;-69
2021/08/10 08:40:54;;;;;;;4.78;2.22;;;23.40;61.90;;;;;;5043967;28;20025;-70
2021/08/10 08:43:39;;;;;;;31.63;8.00;;;23.50;62.00;;;;;;5043912;28;20039;-70
2021/08/10 08:46:23;;;;;;;11.20;3.97;;;23.70;61.70;;;;;;5043684;28;20131;-70
2021/08/10 08:49:08;;;;;;;14.23;3.90;;;23.80;61.00;;;;;;5043433;28;20335;-70
2021/08/10 08:51:52;;;;;;;5.40;2.42;;;23.80;58.60;;;;;;5043557;28;20067;-70
2021/08/10 08:54:36;;;;;;;3.72;2.30;;;23.80;59.70;;;;;;5043788;28;20024;-69
2021/08/10 08:57:20;;;;;;;3.63;1.98;;;23.90;59.90;;;;;;5029073;28;20356;-70
2021/08/10 09:00:05;;;;;;;3.13;2.10;;;24.10;58.40;;;;;;5028677;28;20036;-70
2021/08/10 09:02:49;;;;;;;4.28;2.10;;;24.10;56.10;;;;;;5044008;28;20072;-70
2021/08/10 09:05:35;;;;;;;6.07;1.90;;;24.30;56.30;;;;;;5043490;28;20044;-70
2021/08/10 09:08:29;;;;;;;5.43;2.40;;;24.30;56.20;;;;;;5043200;28;20045;-70
2021/08/10 09:11:17;;;;;;;3.90;2.08;;;24.40;55.00;;;;;;5043569;28;20071;-70
2021/08/10 09:14:03;;;;;;;4.57;2.30;;;24.50;57.10;;;;;;5043681;28;20040;-70
2021/08/10 09:17:07;;;;;;;2.92;1.90;;;24.70;55.70;;;;;;5043300;28;20041;-70
2021/08/10 09:19:54;;;;;;;4.30;2.20;;;24.70;55.80;;;;;;5043590;28;20067;-70
2021/08/10 09:22:38;;;;;;;5.32;2.10;;;24.90;56.40;;;;;;5042304;28;20045;-70
2021/08/10 09:25:23;;;;;;;5.57;1.98;;;24.90;54.10;;;;;;5043465;28;20051;-70
2021/08/10 09:28:09;;;;;;;5.85;2.22;;;25.00;54.30;;;;;;5047290;28;20035;-69
2021/08/10 09:30:53;;;;;;;4.90;1.98;;;25.10;54.10;;;;;;5047281;28;20296;-70
2021/08/10 09:33:40;;;;;;;3.63;2.30;;;25.20;54.70;;;;;;5047166;28;20386;-70
2021/08/10 09:36:24;;;;;;;4.57;2.20;;;25.20;53.00;;;;;;5047545;28;20225;-70
2021/08/10 09:39:09;;;;;;;4.90;1.70;;;25.30;54.00;;;;;;5047053;28;20043;-70
2021/08/10 09:42:00;;;;;;;4.22;1.85;;;25.30;52.50;;;;;;5047172;28;20056;-70
2021/08/10 09:44:57;;;;;;;3.83;2.40;;;25.30;53.20;;;;;;5046556;28;20074;-70
2021/08/10 09:47:40;;;;;;;4.47;2.05;;;25.40;51.60;;;;;;5047418;28;20084;-70
2021/08/10 09:50:26;;;;;;;4.43;2.15;;;25.40;53.00;;;;;;5047104;28;20060;-70
2021/08/10 09:53:17;;;;;;;3.60;2.00;;;25.50;51.90;;;;;;5047343;28;20040;-70
2021/08/10 09:56:01;;;;;;;3.47;2.10;;;25.50;54.40;;;;;;5046278;28;20036;-70
2021/08/10 09:58:58;;;;;;;5.28;2.20;;;25.70;53.30;;;;;;5045929;28;20363;-70
2021/08/10 10:01:43;;;;;;;2.95;1.95;;;25.80;52.60;;;;;;5046654;28;20036;-70
2021/08/10 10:04:31;;;;;;;3.92;2.08;;;25.80;51.90;;;;;;5046750;28;20116;-70
2021/08/10 10:07:15;;;;;;;4.22;2.30;;;25.80;52.80;;;;;;5046731;28;20076;-69
2021/08/10 10:10:00;;;;;;;4.55;2.25;;;25.80;51.70;;;;;;5046574;28;20052;-69
2021/08/10 10:12:44;;;;;;;4.13;2.33;;;26.00;52.30;;;;;;5046458;28;20076;-70
2021/08/10 10:15:28;;;;;;;6.78;3.30;;;26.10;55.10;;;;;;5045409;28;20029;-69
2021/08/10 10:18:13;;;;;;;4.05;2.30;;;26.20;55.90;;;;;;5046916;28;20047;-70
2021/08/10 10:20:57;;;;;;;4.45;2.15;;;26.30;54.80;;;;;;5046441;28;20037;-70
2021/08/10 10:23:41;;;;;;;4.05;2.20;;;26.30;53.90;;;;;;5045425;28;20051;-70
2021/08/10 10:26:25;;;;;;;5.03;2.10;;;26.30;52.80;;;;;;5046901;28;20432;-70
2021/08/10 10:29:10;;;;;;;3.90;2.10;;;26.40;53.40;;;;;;5045657;28;20032;-70
2021/08/10 10:31:55;;;;;;;4.20;2.13;;;26.50;52.10;;;;;;5046161;28;20072;-70
2021/08/10 10:34:40;;;;;;;5.93;2.13;;;26.60;52.50;;;;;;5046310;28;20091;-70
2021/08/10 10:37:26;;;;;;;5.03;2.20;;;26.60;49.80;;;;;;5044774;28;20105;-70
2021/08/10 10:40:11;;;;;;;6.80;2.17;;;26.70;50.30;;;;;;5045042;28;20221;-70
2021/08/10 10:42:56;;;;;;;4.65;2.08;;;26.80;53.70;;;;;;5045995;28;20068;-69
2021/08/10 10:45:42;;;;;;;4.40;2.10;;;26.80;49.70;;;;;;5045797;28;20029;-69
2021/08/10 10:48:25;;;;;;;4.90;2.50;;;27.00;51.90;;;;;;5045206;28;20056;-70
2021/08/10 10:51:11;;;;;;;3.88;2.10;;;26.90;50.10;;;;;;5045850;28;20225;-70
2021/08/10 10:54:27;;;;;;;4.20;1.90;;;27.00;49.40;;;;;;5045843;28;20154;-70
2021/08/10 10:57:29;;;;;;;4.57;2.15;;;27.20;51.20;;;;;;5045605;28;20044;-70
2021/08/10 11:00:18;;;;;;;4.88;2.00;;;27.30;48.80;;;;;;5045752;28;20036;-70
2021/08/10 11:03:10;;;;;;;4.82;2.40;;;27.30;50.30;;;;;;5044738;28;20068;-70
2021/08/10 11:05:59;;;;;;;5.13;2.60;;;27.20;47.70;;;;;;5045510;28;20339;-70
2021/08/10 11:08:43;;;;;;;4.40;2.30;;;27.20;48.70;;;;;;5031160;28;20056;-70
2021/08/10 11:11:51;;;;;;;4.00;2.25;;;27.30;48.50;;;;;;5045309;28;20356;-70
2021/08/10 11:14:35;;;;;;;3.97;1.75;;;27.40;48.00;;;;;;5045317;28;20100;-70
2021/08/10 11:17:19;;;;;;;4.18;2.08;;;27.50;48.40;;;;;;5045135;28;20147;-70
2021/08/10 11:20:24;;;;;;;5.10;2.40;;;27.60;49.00;;;;;;5045520;28;20336;-70
2021/08/10 11:23:23;;;;;;;6.55;2.20;;;27.70;47.50;;;;;;5044624;28;20136;-69
2021/08/10 11:26:09;;;;;;;4.80;2.25;;;27.80;47.80;;;;;;5044084;28;20075;-70
2021/08/10 11:28:53;;;;;;;3.63;2.00;;;27.80;47.10;;;;;;5044373;28;20095;-70
2021/08/10 11:31:41;;;;;;;7.50;2.40;;;27.80;45.90;;;;;;5044267;28;20216;-70
2021/08/10 11:34:37;;;;;;;5.38;2.30;;;27.80;45.30;;;;;;5043080;28;20033;-70
2021/08/10 11:37:25;;;;;;;4.10;2.22;;;27.80;46.00;;;;;;5043802;28;20091;-70
2021/08/10 11:40:11;;;;;;;4.45;2.15;;;27.90;46.10;;;;;;5043977;28;20037;-70
2021/08/10 11:42:55;;;;;;;7.43;2.30;;;28.00;47.40;;;;;;5043835;28;20051;-70
2021/08/10 11:45:39;;;;;;;7.55;2.13;;;28.00;47.40;;;;;;5043756;28;20024;-70
2021/08/10 11:48:23;;;;;;;4.20;2.30;;;28.10;47.50;;;;;;5029132;28;20021;-70
2021/08/10 11:51:25;;;;;;;6.00;2.30;;;28.20;49.10;;;;;;5043794;28;20044;-70
2021/08/10 11:54:19;;;;;;;4.50;2.20;;;28.30;47.30;;;;;;5043841;28;20267;-70
2021/08/10 11:57:04;;;;;;;5.15;1.80;;;28.30;47.80;;;;;;5043688;28;20040;-70
2021/08/10 11:59:51;;;;;;;6.68;2.40;;;28.40;48.50;;;;;;5044077;28;20052;-70
2021/08/10 12:02:42;;;;;;;4.43;2.10;;;28.30;46.10;;;;;;5044015;28;20036;-70
2021/08/10 12:05:27;;;;;;;4.20;2.25;;;28.30;44.90;;;;;;5043533;28;20078;-70
2021/08/10 12:08:11;;;;;;;4.45;2.30;;;28.30;47.80;;;;;;5043411;28;20037;-70
2021/08/10 12:10:55;;;;;;;7.03;2.40;;;28.40;47.80;;;;;;5043744;28;20039;-70
2021/08/10 12:13:40;;;;;;;9.40;2.00;;;28.40;48.00;;;;;;5042440;28;20060;-70
2021/08/10 12:16:23;;;;;;;5.05;1.80;;;28.40;47.30;;;;;;5043024;28;20228;-70
2021/08/10 12:19:08;;;;;;;5.18;2.03;;;28.40;45.40;;;;;;5042925;28;20225;-70
2021/08/10 12:21:52;;;;;;;3.10;1.80;;;28.50;46.60;;;;;;5043095;28;20079;-69
2021/08/10 12:24:38;;;;;;;5.03;2.13;;;28.40;45.70;;;;;;5007976;28;999156;-70
2021/08/10 12:27:27;;;;;;;4.63;2.50;;;28.40;43.90;;;;;;5044361;28;20024;-70
2021/08/10 12:30:15;;;;;;;5.32;2.30;;;28.30;42.20;;;;;;5029085;28;20072;-70
2021/08/10 12:33:11;;;;;;;5.15;2.13;;;28.30;42.50;;;;;;5043974;28;20079;-70
2021/08/10 12:36:03;;;;;;;3.15;2.00;;;28.30;42.40;;;;;;5043940;28;20079;-70
2021/08/10 12:38:48;;;;;;;7.72;2.33;;;28.40;42.30;;;;;;5044252;28;20123;-70
2021/08/10 12:41:33;;;;;;;2.95;1.88;;;28.50;45.20;;;;;;5043311;28;20052;-70
2021/08/10 12:44:16;;;;;;;4.95;2.25;;;28.60;45.10;;;;;;5044087;28;20258;-70
2021/08/10 12:47:02;;;;;;;5.43;2.13;;;28.60;44.00;;;;;;5043050;28;20390;-70
2021/08/10 12:49:46;;;;;;;3.90;2.08;;;28.60;44.00;;;;;;5042971;28;20083;-70
2021/08/10 12:52:48;;;;;;;3.50;2.08;;;28.60;41.80;;;;;;5043832;28;20071;-70
2021/08/10 12:55:48;;;;;;;4.20;2.10;;;28.70;43.40;;;;;;5043755;28;20336;-70
2021/08/10 12:58:50;;;;;;;4.57;2.10;;;28.70;43.40;;;;;;5042446;28;20040;-70
2021/08/10 13:01:44;;;;;;;3.47;2.20;;;28.70;42.40;;;;;;5041983;28;20037;-70
2021/08/10 13:04:28;;;;;;;4.70;2.20;;;28.70;44.00;;;;;;5043495;28;20075;-70
2021/08/10 13:07:16;;;;;;;5.53;2.00;;;28.60;42.30;;;;;;5043940;28;20035;-70
2021/08/10 13:10:01;;;;;;;4.25;2.22;;;28.80;43.70;;;;;;5043410;28;20032;-70
2021/08/10 13:12:53;;;;;;;3.65;2.08;;;28.80;44.70;;;;;;5043258;28;20060;-69
2021/08/10 13:15:44;;;;;;;5.28;2.63;;;28.80;43.70;;;;;;5043359;28;20021;-70
2021/08/10 13:18:30;;;;;;;6.10;2.33;;;28.90;43.00;;;;;;5042353;28;20299;-68
2021/08/10 13:21:16;;;;;;;4.30;2.10;;;28.80;43.00;;;;;;5043819;28;20060;-70
2021/08/10 13:24:06;;;;;;;4.35;1.90;;;28.80;43.60;;;;;;5043163;28;20236;-70
2021/08/10 13:26:51;;;;;;;;;;;28.70;42.20;;;;;;5042717;28;20108;-70
2021/08/10 13:29:37;;;;;;;3.17;1.88;;;28.70;43.50;;;;;;5043597;28;19916;-70
2021/08/10 13:32:21;;;;;;;4.45;2.00;;;28.70;43.40;;;;;;5043574;28;20056;-70
2021/08/10 13:35:05;;;;;;;3.90;2.08;;;28.70;43.50;;;;;;5028720;28;20261;-70
2021/08/10 13:37:50;;;;;;;2.67;1.63;;;28.70;43.10;;;;;;5043284;28;20083;-70
2021/08/10 13:40:34;;;;;;;5.55;1.90;;;28.60;42.80;;;;;;5043041;28;20029;-70
2021/08/10 13:43:18;;;;;;;4.97;1.98;;;28.70;41.60;;;;;;5043312;28;20358;-70
2021/08/10 13:46:02;;;;;;;2.80;1.83;;;28.70;42.70;;;;;;5043302;28;20028;-69
2021/08/10 13:48:47;;;;;;;2.92;2.00;;;28.70;41.70;;;;;;5043112;28;20217;-69
2021/08/10 13:51:32;;;;;;;3.58;1.92;;;28.80;42.10;;;;;;5043064;28;20068;-70
2021/08/10 13:54:16;;;;;;;3.30;2.03;;;28.80;44.40;;;;;;5042458;28;20371;-70
2021/08/10 13:57:00;;;;;;;4.43;2.00;;;28.90;43.20;;;;;;5042994;28;20041;-70
2021/08/10 13:59:44;;;;;;;5.07;2.22;;;29.00;43.20;;;;;;5043024;28;20040;-70
2021/08/10 14:02:28;;;;;;;3.60;2.15;;;28.90;43.20;;;;;;5042886;28;20076;-70
2021/08/10 14:05:13;;;;;;;4.28;2.28;;;29.00;43.90;;;;;;5043025;28;20105;-70
2021/08/10 14:07:57;;;;;;;4.00;1.98;;;29.10;43.10;;;;;;5042819;28;20048;-70
2021/08/10 14:10:41;;;;;;;3.67;2.00;;;29.10;43.10;;;;;;5042777;28;20225;-70
2021/08/10 14:13:26;;;;;;;4.80;2.15;;;29.10;43.30;;;;;;5045281;28;20037;-70
2021/08/10 14:16:10;;;;;;;4.18;1.90;;;29.00;41.50;;;;;;5046366;28;20079;-70
2021/08/10 14:18:54;;;;;;;3.67;2.10;;;29.10;43.30;;;;;;5046352;28;20033;-70
2021/08/10 14:21:38;;;;;;;3.65;2.03;;;29.10;43.70;;;;;;5046205;28;20040;-69
2021/08/10 14:24:23;;;;;;;3.83;2.10;;;29.00;42.90;;;;;;5046511;28;20175;-70